Time;durP1;ratioP1;P1;durP2;ratioP2;P2;SDS_P1;SDS_P2;PMS_P1;PMS_P2;Temp;Humidity;BMP_temperature;BMP_pressure;BME280_temperature;BME280_humidity;BME280_pressure;Samples;Min_cycle;Max_cycle;Signal;HPM_P1;HPM_P2
2022/07/15 00:02:01;;;;;;;4.93;3.23;;;;;;;20.74;46.01;156695.19;4975762;28;20509;-82
2022/07/15 00:04:28;;;;;;;2.83;2.63;;;;;;;20.80;45.69;156712.16;4979889;28;20576;-83
2022/07/15 00:06:55;;;;;;;4.57;3.20;;;;;;;20.81;45.77;156713.47;4990823;28;20453;-83
2022/07/15 00:10:13;;;;;;;3.60;3.30;;;;;;;20.70;45.89;156684.78;4993861;28;20426;-83
2022/07/15 00:12:10;;;;;;;4.30;2.90;;;;;;;20.65;45.90;156674.31;4976608;28;20539;-83
2022/07/15 00:14:37;;;;;;;4.20;3.77;;;;;;;20.71;45.77;156687.34;4977627;28;20536;-76
2022/07/15 00:17:03;;;;;;;5.07;3.63;;;;;;;20.64;45.84;156671.72;4976179;28;20457;-76
2022/07/15 00:19:30;;;;;;;5.00;3.53;;;;;;;20.72;45.58;156689.97;4977770;28;20532;-76
2022/07/15 00:21:57;;;;;;;4.40;3.63;;;;;;;20.64;45.76;156671.72;4984417;28;20576;-75
2022/07/15 00:24:24;;;;;;;3.83;3.20;;;;;;;20.58;46.11;156656.06;4992318;28;20932;-76
2022/07/15 00:26:51;;;;;;;5.27;3.20;;;;;;;20.56;45.81;156650.84;4985945;28;20564;-76
2022/07/15 00:29:19;;;;;;;3.60;3.30;;;;;;;20.49;46.30;156632.56;4981867;28;20458;-76
2022/07/15 00:31:45;;;;;;;4.63;3.10;;;;;;;20.49;46.16;156632.56;4973245;28;20464;-76
2022/07/15 00:34:12;;;;;;;4.17;3.50;;;;;;;20.47;46.44;156627.34;4984772;28;20532;-76
2022/07/15 00:36:39;;;;;;;3.20;2.90;;;;;;;20.44;46.38;156618.22;4975848;28;20461;-76
2022/07/15 00:39:07;;;;;;;3.87;3.30;;;;;;;20.39;46.37;156605.16;4975339;28;20491;-76
2022/07/15 00:41:37;;;;;;;4.23;3.27;;;;;;;20.42;46.65;156613.00;4965013;28;20462;-76
2022/07/15 00:44:04;;;;;;;3.87;3.07;;;;;;;20.36;46.73;156598.66;4977955;28;20446;-76
2022/07/15 00:46:32;;;;;;;3.87;3.47;;;;;;;20.31;46.95;156585.63;4974250;28;20435;-76
2022/07/15 00:49:03;;;;;;;4.43;3.80;;;;;;;20.30;47.04;156581.72;4975994;28;20437;-76
2022/07/15 00:51:33;;;;;;;3.80;3.50;;;;;;;20.22;46.91;156562.13;4993224;28;20457;-76
2022/07/15 00:54:00;;;;;;;6.73;3.40;;;;;;;20.12;47.57;156534.72;4976648;28;20517;-76
2022/07/15 00:56:27;;;;;;;3.77;3.40;;;;;;;20.10;47.37;156530.78;4984707;28;20493;-76
2022/07/15 00:58:54;;;;;;;3.87;3.47;;;;;;;20.05;47.41;156519.06;4984920;28;20786;-76
2022/07/15 01:01:21;;;;;;;3.80;3.40;;;;;;;19.98;47.82;156500.81;4975142;28;20489;-76
2022/07/15 01:03:49;;;;;;;3.93;3.53;;;;;;;19.97;47.77;156496.88;4990637;28;20550;-76
2022/07/15 01:06:16;;;;;;;5.27;3.70;;;;;;;19.91;48.02;156482.53;4972560;28;20473;-76
2022/07/15 01:08:43;;;;;;;4.10;3.40;;;;;;;19.90;48.33;156479.97;4974833;28;20453;-76
2022/07/15 01:11:10;;;;;;;4.50;3.83;;;;;;;19.89;48.16;156477.34;4993307;28;20984;-76
2022/07/15 01:13:37;;;;;;;3.53;3.23;;;;;;;20.02;47.74;156511.22;4991971;28;20929;-76
2022/07/15 01:16:05;;;;;;;3.63;3.33;;;;;;;19.89;47.85;156476.03;4987417;28;20457;-75
2022/07/15 01:18:33;;;;;;;3.40;3.10;;;;;;;19.82;48.47;156457.78;4975773;28;20481;-76
2022/07/15 01:21:01;;;;;;;4.43;3.20;;;;;;;19.86;48.23;156468.19;4984210;28;20519;-76
2022/07/15 01:23:28;;;;;;;4.53;3.07;;;;;;;19.78;48.50;156448.63;4964626;28;20461;-76
2022/07/15 01:26:11;;;;;;;4.47;3.40;;;;;;;19.74;49.01;156436.91;4972121;28;20854;-75
2022/07/15 01:28:39;;;;;;;4.00;3.47;;;;;;;19.72;49.03;156431.72;4975285;28;20444;-76
2022/07/15 01:31:06;;;;;;;6.13;3.57;;;;;;;19.77;48.73;156444.75;4974070;28;20460;-76
2022/07/15 01:33:36;;;;;;;3.97;3.50;;;;;;;19.69;48.94;156423.88;4990554;28;20565;-75
2022/07/15 01:36:05;;;;;;;3.50;3.20;;;;;;;19.64;49.27;156410.84;4958663;28;20452;-76
2022/07/15 01:38:34;;;;;;;6.23;3.50;;;;;;;19.69;49.40;156423.88;4977925;28;20542;-76
2022/07/15 01:41:03;;;;;;;3.97;3.60;;;;;;;19.65;49.46;156413.44;4973506;28;20566;-76
2022/07/15 01:43:30;;;;;;;6.30;3.30;;;;;;;19.63;49.62;156408.22;4973769;28;20572;-76
2022/07/15 01:45:57;;;;;;;3.97;3.57;;;;;;;19.54;49.54;156386.06;4957999;28;20507;-76
2022/07/15 01:51:40;;;;;;;5.60;4.03;;;;;;;19.50;49.68;156375.66;4976628;28;20532;-76
2022/07/15 01:54:06;;;;;;;4.63;3.27;;;;;;;19.51;49.83;156376.97;4980470;28;20439;-76
2022/07/15 01:56:36;;;;;;;5.10;3.73;;;;;;;19.51;49.57;156376.97;4979593;28;20838;-76
2022/07/15 01:59:03;;;;;;;6.33;3.67;;;;;;;19.44;49.69;156361.31;4970294;28;20449;-76
2022/07/15 02:01:30;;;;;;;4.33;3.30;;;;;;;19.45;49.73;156362.63;4973635;28;20464;-76
2022/07/15 02:03:59;;;;;;;4.10;3.07;;;;;;;19.40;49.80;156350.91;4972201;28;20484;-76
2022/07/15 02:06:26;;;;;;;3.80;3.50;;;;;;;19.28;50.07;156319.53;4971214;28;20459;-76
2022/07/15 02:08:56;;;;;;;4.90;3.33;;;;;;;19.24;49.98;156309.13;4979805;28;20896;-76
2022/07/15 02:11:24;;;;;;;4.23;3.83;;;;;;;19.20;50.42;156298.69;4956325;28;20450;-76
2022/07/15 02:13:53;;;;;;;5.67;3.47;;;;;;;19.18;50.36;156293.50;4958549;28;20495;-76
2022/07/15 02:16:22;;;;;;;3.90;3.40;;;;;;;19.15;50.21;156285.66;4973754;28;20469;-76
2022/07/15 02:18:50;;;;;;;7.80;3.57;;;;;;;19.14;50.40;156281.78;4973138;28;20818;-76
2022/07/15 02:21:17;;;;;;;4.90;3.30;;;;;;;19.08;49.99;156266.13;4985598;28;20788;-76
2022/07/15 02:23:44;;;;;;;4.03;3.40;;;;;;;19.03;50.50;156254.41;4982256;28;20476;-76
2022/07/15 02:26:12;;;;;;;3.33;3.03;;;;;;;19.02;50.40;156250.47;4964891;28;20474;-75
2022/07/15 02:28:39;;;;;;;3.47;3.17;;;;;;;18.91;50.61;156221.78;4992162;28;20884;-76
2022/07/15 02:31:06;;;;;;;6.47;3.33;;;;;;;18.84;51.39;156204.88;4956561;28;20852;-82
2022/07/15 02:33:36;;;;;;;3.50;3.20;;;;;;;18.81;51.57;156198.38;4973634;28;20528;-81
2022/07/15 02:36:08;;;;;;;3.97;3.40;;;;;;;18.75;51.84;156182.72;4973502;28;20461;-81
2022/07/15 02:38:35;;;;;;;3.90;3.50;;;;;;;18.72;52.67;156173.59;4975007;28;20450;-82
2022/07/15 02:41:03;;;;;;;4.60;3.30;;;;;;;18.68;52.62;156163.19;4976733;28;20460;-82
2022/07/15 02:43:33;;;;;;;4.40;3.30;;;;;;;18.63;53.19;156150.16;4990984;28;20536;-82
2022/07/15 02:46:01;;;;;;;4.43;4.03;;;;;;;18.50;53.24;156116.31;4973408;28;20464;-82
2022/07/15 02:48:28;;;;;;;3.27;2.97;;;;;;;18.49;53.00;156113.66;4974449;28;20445;-82
2022/07/15 02:50:55;;;;;;;4.27;3.80;;;;;;;18.49;53.36;156113.66;4978520;28;20886;-82
2022/07/15 02:53:25;;;;;;;4.43;3.60;;;;;;;18.39;53.21;156087.59;4984754;28;20434;-82
2022/07/15 02:55:52;;;;;;;5.50;3.83;;;;;;;18.32;53.92;156069.38;4989740;28;20520;-82
2022/07/15 02:58:19;;;;;;;3.70;3.40;;;;;;;18.33;53.58;156073.25;4991619;28;20438;-83
2022/07/15 03:00:50;;;;;;;4.70;3.67;;;;;;;18.29;53.55;156061.53;4972252;28;20811;-82
2022/07/15 03:03:17;;;;;;;4.30;4.00;;;;;;;18.23;53.75;156048.53;4972976;28;20474;-82
2022/07/15 03:05:44;;;;;;;3.97;3.30;;;;;;;18.25;53.62;156053.72;4974457;28;20444;-82
2022/07/15 03:08:11;;;;;;;3.50;3.20;;;;;;;18.19;53.59;156038.09;4971847;28;20533;-82
2022/07/15 03:10:39;;;;;;;4.67;3.50;;;;;;;18.14;53.89;156025.06;4988667;28;20831;-82
2022/07/15 03:13:06;;;;;;;4.80;3.30;;;;;;;18.10;54.21;156014.66;4970250;28;20438;-82
2022/07/15 03:15:33;;;;;;;4.63;3.33;;;;;;;18.03;53.91;155996.41;4953034;28;20548;-82
2022/07/15 03:18:01;;;;;;;5.60;4.00;;;;;;;17.97;54.08;155979.50;4970416;28;20453;-82
2022/07/15 03:20:27;;;;;;;10.83;3.30;;;;;;;17.95;53.86;155975.56;4982996;28;20515;-82
2022/07/15 03:22:55;;;;;;;3.60;3.30;;;;;;;17.95;54.08;155975.56;4977980;28;20473;-82
2022/07/15 03:25:22;;;;;;;4.20;3.80;;;;;;;17.93;54.12;155969.06;4958298;28;20525;-82
2022/07/15 03:27:49;;;;;;;3.43;3.13;;;;;;;17.92;54.08;155967.78;4978894;28;20490;-82
2022/07/15 03:30:16;;;;;;;3.37;3.07;;;;;;;17.97;53.99;155980.81;4973905;28;20536;-82
2022/07/15 03:32:43;;;;;;;5.00;3.43;;;;;;;17.98;54.19;155983.38;4974445;28;20444;-82
2022/07/15 03:35:11;;;;;;;3.47;3.17;;;;;;;17.94;54.50;155971.69;4954874;28;20443;-82
2022/07/15 03:37:40;;;;;;;3.57;3.33;;;;;;;17.89;54.79;155959.97;4955527;28;20483;-82
2022/07/15 03:40:07;;;;;;;4.00;3.70;;;;;;;17.83;55.08;155944.34;4989631;28;20474;-81
2022/07/15 03:42:37;;;;;;;4.77;3.50;;;;;;;17.80;54.74;155936.53;4973746;28;20524;-82
2022/07/15 03:45:04;;;;;;;6.47;4.17;;;;;;;17.82;55.12;155941.72;4973791;28;20809;-82
2022/07/15 03:47:31;;;;;;;3.33;3.03;;;;;;;17.83;55.11;155944.34;4962558;28;20558;-81
2022/07/15 03:50:00;;;;;;;3.57;3.27;;;;;;;17.84;55.19;155945.66;4975009;28;20965;-82
2022/07/15 03:52:28;;;;;;;5.27;3.50;;;;;;;17.81;54.91;155937.84;4989437;28;21268;-81
2022/07/15 03:54:55;;;;;;;6.03;3.30;;;;;;;17.87;54.93;155953.47;4989799;28;20513;-81
2022/07/15 03:57:24;;;;;;;5.23;3.27;;;;;;;17.92;54.97;155967.78;4987501;28;20550;-82
2022/07/15 03:59:51;;;;;;;5.00;3.10;;;;;;;17.91;54.89;155965.16;4955831;28;20459;-81
2022/07/15 04:02:18;;;;;;;5.47;3.40;;;;;;;17.97;54.38;155979.50;4973577;28;20461;-82
2022/07/15 04:04:45;;;;;;;3.67;3.37;;;;;;;17.95;54.37;155975.56;4974234;28;20923;-81
2022/07/15 04:07:12;;;;;;;3.83;3.37;;;;;;;17.98;54.26;155983.38;4968899;28;20490;-82
2022/07/15 04:09:40;;;;;;;3.20;2.90;;;;;;;17.99;54.38;155986.00;4972967;28;20537;-82
2022/07/15 04:12:07;;;;;;;3.73;3.37;;;;;;;18.03;54.43;155996.41;4973033;28;20976;-82
2022/07/15 04:14:37;;;;;;;4.10;3.50;;;;;;;18.12;54.15;156019.88;4956169;28;20439;-82
2022/07/15 04:17:05;;;;;;;5.23;3.30;;;;;;;18.19;53.97;156038.09;4968998;28;20458;-82
2022/07/15 04:19:37;;;;;;;4.10;3.50;;;;;;;18.30;53.79;156064.13;4962179;28;20455;-82
2022/07/15 04:22:05;;;;;;;3.40;3.10;;;;;;;18.35;53.28;156077.19;4996833;28;20559;-82
2022/07/15 04:24:43;;;;;;;6.80;3.37;;;;;;;18.50;53.04;156116.31;4953069;29;20574;-82
2022/07/15 04:27:13;;;;;;;4.13;3.47;;;;;;;18.76;53.27;156185.34;4981472;28;20489;-82
2022/07/15 04:29:40;;;;;;;4.60;3.90;;;;;;;18.91;53.07;156221.78;4994274;28;20469;-82
2022/07/15 04:32:08;;;;;;;4.20;3.77;;;;;;;19.03;52.45;156253.09;4957165;28;20468;-81
2022/07/15 04:34:39;;;;;;;4.03;3.63;;;;;;;19.17;52.27;156290.88;4972830;28;20438;-82
2022/07/15 04:37:06;;;;;;;3.67;3.37;;;;;;;19.34;52.12;156333.88;4976289;28;20457;-81
2022/07/15 04:39:33;;;;;;;6.23;3.80;;;;;;;19.63;51.05;156408.22;4960361;28;20782;-81
2022/07/15 04:42:02;;;;;;;4.03;3.60;;;;;;;19.96;49.24;156494.31;4992267;28;20468;-81
2022/07/15 04:44:28;;;;;;;6.23;3.50;;;;;;;20.15;49.56;156543.81;4975072;28;21000;-81
2022/07/15 04:46:57;;;;;;;3.67;3.37;;;;;;;20.46;48.92;156623.47;4973941;28;20497;-81
2022/07/15 04:52:15;;;;;;;3.97;3.50;;;;;;;20.72;48.26;156689.97;4963580;28;20460;-82
2022/07/15 04:54:45;;;;;;;3.47;3.17;;;;;;;20.91;46.50;156739.56;4967993;28;20446;-81
2022/07/15 04:57:13;;;;;;;3.77;3.37;;;;;;;21.08;46.17;156783.97;4982334;28;20503;-81
2022/07/15 04:59:40;;;;;;;3.87;3.10;;;;;;;21.28;46.11;156836.19;4983697;28;20533;-81
2022/07/15 05:02:12;;;;;;;4.43;3.07;;;;;;;21.36;45.72;156857.09;5003076;28;20465;-81
2022/07/15 05:04:42;;;;;;;3.20;2.90;;;;;;;21.53;44.75;156901.44;4988080;28;20476;-81
2022/07/15 05:07:10;;;;;;;4.47;3.40;;;;;;;21.58;45.35;156913.16;4975642;28;20453;-81
2022/07/15 05:09:38;;;;;;;4.70;3.33;;;;;;;21.69;45.37;156943.22;4972818;28;20489;-83
2022/07/15 05:12:06;;;;;;;4.13;3.60;;;;;;;21.80;46.22;156971.94;4975372;28;20858;-83
2022/07/15 05:14:42;;;;;;;4.60;3.37;;;;;;;22.19;45.69;157071.22;4959071;28;20429;-83
2022/07/15 05:17:09;;;;;;;3.43;2.70;;;;;;;22.37;44.78;157118.28;4975283;28;20839;-82
2022/07/15 05:19:36;;;;;;;3.10;2.73;;;;;;;22.51;44.23;157154.81;4979897;28;20464;-82
2022/07/15 05:22:04;;;;;;;3.70;3.40;;;;;;;22.42;44.35;157131.31;4974709;28;20468;-83
2022/07/15 05:24:32;;;;;;;3.40;3.10;;;;;;;22.51;44.66;157153.50;4972129;28;20850;-82
2022/07/15 05:27:03;;;;;;;3.90;3.50;;;;;;;22.52;44.19;157157.44;4972415;28;20485;-82
2022/07/15 05:29:36;;;;;;;5.40;4.40;;;;;;;22.55;44.46;157165.28;4974395;28;20481;-82
2022/07/15 05:32:04;;;;;;;4.77;3.27;;;;;;;22.63;44.77;157184.94;4958882;28;20551;-83
2022/07/15 05:34:31;;;;;;;4.50;3.70;;;;;;;22.83;44.60;157237.16;4956937;28;20778;-82
2022/07/15 05:36:59;;;;;;;5.50;4.00;;;;;;;22.69;43.74;157201.88;4989062;28;20520;-82
2022/07/15 05:39:26;;;;;;;3.80;3.43;;;;;;;22.91;44.22;157259.38;4976401;28;21048;-82
2022/07/15 05:41:54;;;;;;;8.20;4.20;;;;;;;22.94;44.96;157265.91;4974851;28;20464;-82
2022/07/15 05:44:21;;;;;;;5.13;4.60;;;;;;;22.98;45.19;157277.66;4956993;28;20501;-82
2022/07/15 05:46:50;;;;;;;4.40;3.70;;;;;;;23.25;44.93;157345.63;4973334;28;20456;-83
2022/07/15 05:49:18;;;;;;;5.73;3.90;;;;;;;23.52;44.22;157416.25;4972551;28;20599;-82
2022/07/15 05:51:45;;;;;;;4.60;3.57;;;;;;;23.40;43.10;157384.91;4989178;28;20923;-82
2022/07/15 05:54:14;;;;;;;5.77;4.17;;;;;;;23.66;43.48;157451.56;4984761;28;20804;-82
2022/07/15 05:56:42;;;;;;;5.20;3.17;;;;;;;23.78;42.79;157484.22;4987324;28;20450;-81
2022/07/15 05:59:11;;;;;;;3.37;3.17;;;;;;;23.81;40.91;157492.06;4972994;28;20952;-82
2022/07/15 06:01:37;;;;;;;3.90;3.13;;;;;;;23.91;41.48;157518.22;4965021;28;20454;-82
2022/07/15 06:04:04;;;;;;;3.17;2.87;;;;;;;23.94;40.77;157526.06;4970176;28;20478;-82
2022/07/15 06:06:32;;;;;;;4.30;2.97;;;;;;;23.98;38.48;157536.56;4983109;28;20461;-82
2022/07/15 06:09:00;;;;;;;2.97;2.60;;;;;;;23.78;38.65;157484.22;4974920;28;20847;-82
2022/07/15 06:11:27;;;;;;;3.40;2.87;;;;;;;23.68;40.36;157458.09;4955895;28;20469;-82
2022/07/15 06:13:55;;;;;;;3.50;2.60;;;;;;;24.24;40.30;157603.28;4969303;28;20810;-83
2022/07/15 06:16:22;;;;;;;3.40;2.60;;;;;;;24.65;39.13;157710.50;4982046;28;20490;-83
2022/07/15 06:18:50;;;;;;;2.83;2.53;;;;;;;24.55;38.58;157684.38;4993193;28;20433;-82
2022/07/15 06:21:17;;;;;;;6.30;2.80;;;;;;;24.95;38.17;157786.44;4987896;28;20452;-83
2022/07/15 06:23:46;;;;;;;7.57;3.47;;;;;;;25.22;37.97;157858.44;4973361;28;20531;-82
2022/07/15 06:26:13;;;;;;;6.00;3.40;;;;;;;25.37;37.72;157897.69;4972580;28;20596;-81
2022/07/15 06:28:42;;;;;;;4.37;2.90;;;;;;;25.07;38.11;157819.16;4992223;28;20421;-81
2022/07/15 06:31:09;;;;;;;4.67;3.20;;;;;;;25.37;37.88;157897.69;4992089;28;20460;-81
2022/07/15 06:33:35;;;;;;;6.60;3.27;;;;;;;25.28;37.69;157872.84;4987660;28;20537;-82
2022/07/15 06:36:02;;;;;;;4.27;3.07;;;;;;;24.99;38.53;157798.25;4989668;28;20928;-81
2022/07/15 06:38:29;;;;;;;3.70;3.40;;;;;;;25.24;38.62;157863.66;4991202;28;20503;-82
2022/07/15 06:40:57;;;;;;;4.57;3.13;;;;;;;25.18;38.63;157847.94;4962088;28;20957;-82
2022/07/15 06:43:24;;;;;;;5.07;4.50;;;;;;;25.22;38.39;157858.44;4988994;28;20433;-82
2022/07/15 06:46:09;;;;;;;3.30;3.00;;;;;;;25.18;37.75;157846.63;4960905;28;20466;-82
2022/07/15 06:48:38;;;;;;;3.80;3.20;;;;;;;25.38;37.67;157899.00;4980487;28;20477;-82
2022/07/15 06:51:05;;;;;;;3.50;3.20;;;;;;;25.42;37.59;157909.44;4969923;28;20710;-82
2022/07/15 06:53:32;;;;;;;3.40;3.10;;;;;;;25.38;37.82;157900.31;4988234;28;20450;-82
2022/07/15 06:56:00;;;;;;;4.97;3.43;;;;;;;25.25;37.60;157866.28;4974554;28;20446;-84
2022/07/15 06:58:28;;;;;;;3.93;3.53;;;;;;;25.59;37.82;157952.69;4977803;28;20540;-83
2022/07/15 07:00:56;;;;;;;5.87;4.00;;;;;;;25.99;37.86;158057.44;4961571;28;20468;-83
2022/07/15 07:03:23;;;;;;;6.60;4.10;;;;;;;25.83;36.70;158015.53;4995981;28;20469;-84
2022/07/15 07:05:50;;;;;;;5.20;4.33;;;;;;;25.87;36.66;158026.00;4978089;28;20449;-83
2022/07/15 07:08:17;;;;;;;5.70;4.60;;;;;;;25.95;36.20;158046.94;4990213;28;20462;-83
2022/07/15 07:10:44;;;;;;;5.63;4.03;;;;;;;25.74;37.07;157991.97;4973011;28;20486;-83
2022/07/15 07:13:12;;;;;;;4.30;3.90;;;;;;;26.22;36.85;158116.38;4973826;28;20446;-83
2022/07/15 07:15:39;;;;;;;5.07;3.47;;;;;;;26.42;34.78;158168.81;4975140;28;20437;-83
2022/07/15 07:18:06;;;;;;;6.00;3.97;;;;;;;26.31;35.16;158139.97;4999649;28;20877;-83
2022/07/15 07:20:33;;;;;;;6.60;4.07;;;;;;;25.99;35.22;158057.44;4995178;28;20465;-84
2022/07/15 07:22:59;;;;;;;6.17;4.33;;;;;;;26.27;36.00;158130.81;4961756;28;20465;-83
2022/07/15 07:25:26;;;;;;;6.27;3.17;;;;;;;26.30;34.48;158138.66;4994872;28;20528;-83
2022/07/15 07:27:53;;;;;;;6.50;3.40;;;;;;;25.80;34.94;158007.69;4988416;28;20493;-84
2022/07/15 07:30:21;;;;;;;5.57;3.60;;;;;;;25.96;33.71;158049.59;4986053;28;20533;-83
2022/07/15 07:32:48;;;;;;;4.57;3.90;;;;;;;26.28;34.35;158132.13;4974124;28;20541;-83
2022/07/15 07:35:15;;;;;;;5.60;3.87;;;;;;;25.97;34.41;158052.22;4998125;28;20532;-84
2022/07/15 07:37:41;;;;;;;6.70;4.70;;;;;;;26.00;34.31;158061.34;4989609;28;20496;-84
2022/07/15 07:40:09;;;;;;;3.90;3.53;;;;;;;26.10;34.25;158084.94;4994590;28;20485;-83
2022/07/15 07:42:36;;;;;;;7.73;3.90;;;;;;;26.51;34.64;158193.66;4994271;28;21276;-83
2022/07/15 07:45:03;;;;;;;5.23;3.43;;;;;;;26.51;35.11;158192.34;4993548;28;20550;-85
2022/07/15 07:47:37;;;;;;;4.30;3.17;;;;;;;26.07;35.44;158078.41;4993807;28;20990;-85
2022/07/15 07:50:04;;;;;;;7.57;3.50;;;;;;;26.03;35.27;158067.88;4992729;28;20724;-85
2022/07/15 07:52:30;;;;;;;3.40;3.10;;;;;;;26.19;34.80;158108.53;4975619;28;21031;-83
2022/07/15 07:54:57;;;;;;;4.20;3.40;;;;;;;26.37;34.93;158156.97;5003587;28;20480;-85
2022/07/15 07:57:24;;;;;;;3.73;3.43;;;;;;;26.30;34.91;158137.34;4974374;28;20536;-85
2022/07/15 07:59:50;;;;;;;6.80;3.10;;;;;;;26.33;34.84;158145.22;4966239;28;20445;-74
2022/07/15 08:02:17;;;;;;;3.50;2.57;;;;;;;26.62;34.64;158221.16;4991345;28;20481;-74
2022/07/15 08:04:46;;;;;;;4.00;2.87;;;;;;;26.93;33.57;158301.09;4985373;28;20493;-73
2022/07/15 08:07:12;;;;;;;3.20;2.90;;;;;;;26.75;33.87;158255.22;4970432;28;20489;-74
2022/07/15 08:09:39;;;;;;;3.27;2.97;;;;;;;26.94;33.50;158305.06;4990286;28;20446;-75
2022/07/15 08:12:06;;;;;;;3.80;2.93;;;;;;;27.35;33.38;158409.91;4975963;28;20505;-74
2022/07/15 08:14:34;;;;;;;5.30;3.23;;;;;;;26.86;32.78;158282.78;4992814;28;20469;-75
2022/07/15 08:17:01;;;;;;;4.30;3.00;;;;;;;27.26;33.93;158386.28;4969465;28;21011;-75
2022/07/15 08:19:28;;;;;;;4.33;2.70;;;;;;;27.88;32.92;158547.56;4992420;28;20852;-75
2022/07/15 08:21:56;;;;;;;5.60;3.50;;;;;;;27.96;32.19;158569.81;4992125;28;20489;-75
2022/07/15 08:24:22;;;;;;;7.07;2.70;;;;;;;27.96;32.02;158568.53;4991272;28;20569;-75
2022/07/15 08:26:49;;;;;;;5.33;3.23;;;;;;;27.45;31.89;158436.16;4990312;28;20481;-75
2022/07/15 08:29:16;;;;;;;3.47;3.10;;;;;;;27.06;32.76;158336.50;4973810;28;20848;-74
2022/07/15 08:31:43;;;;;;;3.40;3.10;;;;;;;27.13;32.51;158353.53;4991704;28;20446;-75
2022/07/15 08:34:09;;;;;;;3.07;2.60;;;;;;;27.76;32.11;158517.41;4990954;28;20477;-75
2022/07/15 08:36:36;;;;;;;2.80;2.50;;;;;;;28.31;31.22;158660.31;4993050;28;20480;-75
2022/07/15 08:39:05;;;;;;;3.37;2.83;;;;;;;28.59;31.11;158733.78;4978944;28;20438;-75
2022/07/15 08:41:35;;;;;;;3.03;2.73;;;;;;;29.11;30.66;158867.59;4973318;28;20457;-75
2022/07/15 08:44:01;;;;;;;4.60;3.27;;;;;;;29.36;30.31;158933.25;4988229;28;20486;-75
2022/07/15 08:46:29;;;;;;;4.07;3.20;;;;;;;29.27;29.74;158909.63;4989972;28;20544;-75
2022/07/15 08:49:00;;;;;;;3.23;2.93;;;;;;;28.97;30.62;158833.50;4975826;28;20442;-75
2022/07/15 08:51:27;;;;;;;6.90;3.30;;;;;;;28.45;30.98;158697.06;4989670;28;20457;-75
2022/07/15 08:53:55;;;;;;;3.83;2.87;;;;;;;28.34;31.33;158668.19;4976339;28;20525;-75
2022/07/15 08:56:24;;;;;;;3.30;3.00;;;;;;;28.04;31.69;158589.56;4972468;28;20446;-85
2022/07/15 08:58:50;;;;;;;3.33;2.80;;;;;;;27.96;31.57;158568.53;4973194;28;20538;-84
2022/07/15 09:01:17;;;;;;;2.80;2.60;;;;;;;27.89;31.79;158551.47;4972573;28;20956;-84
2022/07/15 09:03:44;;;;;;;5.43;3.00;;;;;;;27.75;31.94;158514.75;4982981;28;20537;-85
2022/07/15 09:06:31;;;;;;;5.30;3.47;;;;;;;27.42;32.69;158429.59;4973967;28;20508;-85
2022/07/15 09:08:57;;;;;;;6.10;3.33;;;;;;;27.69;32.65;158500.31;4986474;28;20956;-85
2022/07/15 09:11:30;;;;;;;4.37;2.80;;;;;;;27.79;32.19;158526.59;4991330;28;20550;-84
2022/07/15 09:14:00;;;;;;;4.17;3.20;;;;;;;26.82;31.62;158272.31;4992614;28;20484;-85
2022/07/15 09:16:26;;;;;;;6.90;3.43;;;;;;;26.66;33.02;158231.69;4975396;28;20449;-85
2022/07/15 09:18:53;;;;;;;3.90;3.20;;;;;;;26.31;32.83;158141.31;4992726;28;20433;-85
2022/07/15 09:21:21;;;;;;;3.73;3.40;;;;;;;25.94;33.74;158044.34;4993912;28;20480;-85
2022/07/15 09:23:48;;;;;;;4.00;3.10;;;;;;;25.94;34.26;158044.34;4990720;28;20913;-86
2022/07/15 09:26:26;;;;;;;5.40;2.83;;;;;;;26.11;33.10;158088.84;4987651;28;20898;-85
2022/07/15 09:28:54;;;;;;;4.47;3.00;;;;;;;26.33;33.59;158145.22;4958457;28;20472;-85
2022/07/15 09:34:13;;;;;;;3.70;3.30;;;;;;;26.48;33.28;158185.81;4985331;28;20482;-85
2022/07/15 09:36:43;;;;;;;3.03;2.73;;;;;;;27.52;31.95;158455.78;4963869;28;20525;-85
2022/07/15 09:39:10;;;;;;;3.50;3.20;;;;;;;27.53;31.86;158458.44;4990113;28;20547;-85
2022/07/15 09:41:38;;;;;;;4.60;3.57;;;;;;;27.62;31.83;158482.00;4991414;28;20897;-85
2022/07/15 09:44:08;;;;;;;5.27;3.50;;;;;;;27.44;32.02;158434.81;4986853;28;20493;-85
2022/07/15 09:46:44;;;;;;;3.30;3.00;;;;;;;27.77;31.77;158521.31;4971149;28;20469;-85
2022/07/15 09:49:12;;;;;;;3.43;2.67;;;;;;;27.96;31.55;158568.53;4990941;28;20544;-85
2022/07/15 09:51:47;;;;;;;3.63;3.10;;;;;;;28.07;31.74;158598.69;4974099;28;20808;-85
2022/07/15 09:54:14;;;;;;;6.30;3.03;;;;;;;28.13;31.99;158613.13;4971851;28;20445;-85
2022/07/15 09:56:41;;;;;;;8.70;3.80;;;;;;;27.01;32.38;158322.06;4971527;28;20442;-86
2022/07/15 09:59:10;;;;;;;8.83;3.67;;;;;;;26.84;32.91;158277.56;4984551;28;20603;-86
2022/07/15 10:01:37;;;;;;;5.00;3.37;;;;;;;27.37;32.64;158416.44;4971913;28;20492;-85
2022/07/15 10:04:04;;;;;;;3.93;3.20;;;;;;;28.01;32.50;158581.63;4987904;28;20548;-85
2022/07/15 10:06:35;;;;;;;4.70;3.10;;;;;;;27.81;32.03;158530.50;4974656;28;20489;-84
2022/07/15 10:09:02;;;;;;;4.20;2.87;;;;;;;27.99;31.81;158577.69;4992068;28;20481;-85
2022/07/15 10:11:29;;;;;;;3.73;3.07;;;;;;;27.90;31.78;158554.13;4992229;28;20542;-85
2022/07/15 10:14:34;;;;;;;3.40;3.10;;;;;;;27.42;32.18;158429.59;4990252;28;20553;-85
2022/07/15 10:17:21;;;;;;;3.83;3.53;;;;;;;26.74;32.88;158251.31;4990559;28;20825;-85
2022/07/15 10:20:10;;;;;;;4.80;3.40;;;;;;;26.60;34.23;158217.25;4986647;28;20464;-84
2022/07/15 10:22:47;;;;;;;4.90;3.40;;;;;;;26.94;32.52;158305.06;4988962;28;20517;-85
2022/07/15 10:25:21;;;;;;;3.93;3.53;;;;;;;26.34;33.82;158149.16;4984109;28;20475;-85
2022/07/15 10:27:59;;;;;;;4.63;4.00;;;;;;;26.52;33.13;158195.00;4980433;28;20537;-84
2022/07/15 10:30:28;;;;;;;5.63;3.30;;;;;;;26.57;34.24;158208.06;4952802;29;20855;-84
2022/07/15 10:33:14;;;;;;;3.60;3.30;;;;;;;26.41;33.71;158167.47;4975242;28;20462;-84
2022/07/15 10:35:45;;;;;;;5.07;3.60;;;;;;;26.60;33.51;158217.25;4951028;28;20918;-84
2022/07/15 10:38:24;;;;;;;3.50;2.97;;;;;;;26.54;33.84;158201.53;4952723;29;20830;-84
2022/07/15 10:41:02;;;;;;;4.30;3.07;;;;;;;26.33;34.41;158146.53;4967343;28;20487;-83
2022/07/15 10:43:40;;;;;;;4.50;3.17;;;;;;;26.23;34.28;158120.34;4962571;28;20537;-84
2022/07/15 10:46:19;;;;;;;4.70;3.93;;;;;;;25.79;34.38;158005.03;4984577;28;20633;-84
2022/07/15 10:48:46;;;;;;;3.60;3.20;;;;;;;25.76;35.40;157997.22;4970987;28;20481;-84
2022/07/15 10:51:46;;;;;;;3.80;3.50;;;;;;;25.67;34.93;157973.66;4971874;28;20894;-84
2022/07/15 10:54:47;;;;;;;3.90;3.50;;;;;;;25.81;35.20;158010.31;4967295;28;20470;-84
2022/07/15 10:57:15;;;;;;;3.73;3.30;;;;;;;25.79;34.10;158005.03;4970486;28;20553;-84
2022/07/15 10:59:50;;;;;;;3.87;3.57;;;;;;;25.50;35.34;157929.13;4972097;28;20530;-84
2022/07/15 11:02:20;;;;;;;4.30;3.77;;;;;;;25.64;34.87;157967.09;4970993;28;20469;-84
2022/07/15 11:04:48;;;;;;;4.30;3.73;;;;;;;25.59;35.81;157952.69;4981509;28;20450;-84
2022/07/15 11:07:31;;;;;;;5.50;3.43;;;;;;;25.99;34.66;158058.75;4969979;28;20525;-84
2022/07/15 11:10:14;;;;;;;4.07;3.67;;;;;;;26.24;34.20;158122.94;4969997;28;20517;-83
2022/07/15 11:13:04;;;;;;;4.40;3.57;;;;;;;26.42;33.26;158170.06;4984639;28;20490;-83
2022/07/15 11:15:44;;;;;;;3.50;3.20;;;;;;;26.56;33.54;158205.44;4973833;28;20537;-74
2022/07/15 11:18:12;;;;;;;4.13;3.73;;;;;;;26.46;32.73;158179.25;4991502;28;20450;-74
2022/07/15 11:20:39;;;;;;;4.30;3.60;;;;;;;26.09;34.08;158083.63;4975979;28;20474;-73
2022/07/15 11:23:07;;;;;;;3.40;3.10;;;;;;;25.50;35.04;157929.13;4969365;28;20926;-73
2022/07/15 11:25:36;;;;;;;4.10;3.40;;;;;;;25.72;35.42;157988.06;4970162;28;20976;-73
2022/07/15 11:28:06;;;;;;;4.20;2.93;;;;;;;25.87;35.08;158026.00;4970024;28;20489;-73
2022/07/15 11:30:36;;;;;;;5.73;3.40;;;;;;;25.88;34.61;158028.63;4966455;28;20494;-73
2022/07/15 11:33:04;;;;;;;4.00;3.63;;;;;;;25.53;34.47;157938.31;4966965;28;21025;-73
2022/07/15 11:35:44;;;;;;;3.80;3.50;;;;;;;25.53;35.37;157938.31;4968734;28;20505;-73
2022/07/15 11:38:10;;;;;;;4.27;3.87;;;;;;;25.22;34.70;157857.13;4968919;28;20442;-73
2022/07/15 11:46:12;;;;;;;5.30;4.00;;;;;;;25.03;35.35;157808.69;4972987;28;20470;-75
2022/07/15 11:48:40;;;;;;;3.90;3.60;;;;;;;25.05;35.98;157812.59;4987192;28;20451;-75